sensor_id;sensor_type;location;lat;lon;timestamp;pressure;altitude;pressure_sealevel;temperature;humidity
28935;BME280;16044;52.726;-2.108;2024-03-06T00:00:45;100861.03;;;1.92;100.00
28935;BME280;16044;52.726;-2.108;2024-03-06T00:03:16;100868.53;;;1.87;100.00
28935;BME280;16044;52.726;-2.108;2024-03-06T00:05:47;100866.72;;;1.87;100.00
28935;BME280;16044;52.726;-2.108;2024-03-06T00:08:17;100871.34;;;1.85;100.00
28935;BME280;16044;52.726;-2.108;2024-03-06T00:10:50;100865.13;;;1.85;100.00
28935;BME280;16044;52.726;-2.108;2024-03-06T00:13:21;100863.53;;;1.82;100.00
28935;BME280;16044;52.726;-2.108;2024-03-06T00:15:51;100868.88;;;1.82;100.00
28935;BME280;16044;52.726;-2.108;2024-03-06T00:18:21;100860.22;;;1.79;100.00
28935;BME280;16044;52.726;-2.108;2024-03-06T00:20:52;100861.31;;;1.76;100.00
28935;BME280;16044;52.726;-2.108;2024-03-06T00:23:22;100857.91;;;1.74;100.00
28935;BME280;16044;52.726;-2.108;2024-03-06T00:25:55;100864.28;;;1.71;100.00
28935;BME280;16044;52.726;-2.108;2024-03-06T00:28:26;100866.22;;;1.69;100.00
28935;BME280;16044;52.726;-2.108;2024-03-06T00:30:56;100871.69;;;1.68;100.00
28935;BME280;16044;52.726;-2.108;2024-03-06T00:33:26;100867.41;;;1.65;100.00
28935;BME280;16044;52.726;-2.108;2024-03-06T00:35:57;100864.94;;;1.62;100.00
28935;BME280;16044;52.726;-2.108;2024-03-06T00:38:27;100866.97;;;1.59;100.00
28935;BME280;16044;52.726;-2.108;2024-03-06T00:41:00;100870.75;;;1.56;100.00
28935;BME280;16044;52.726;-2.108;2024-03-06T00:43:30;100867.53;;;1.51;100.00
28935;BME280;16044;52.726;-2.108;2024-03-06T00:46:01;100866.03;;;1.47;100.00
28935;BME280;16044;52.726;-2.108;2024-03-06T00:48:31;100876.84;;;1.45;100.00
28935;BME280;16044;52.726;-2.108;2024-03-06T00:51:05;100872.56;;;1.43;100.00
28935;BME280;16044;52.726;-2.108;2024-03-06T00:53:36;100865.94;;;1.35;100.00
28935;BME280;16044;52.726;-2.108;2024-03-06T00:56:09;100872.47;;;1.31;100.00
28935;BME280;16044;52.726;-2.108;2024-03-06T00:58:40;100869.25;;;1.26;100.00
28935;BME280;16044;52.726;-2.108;2024-03-06T01:01:10;100880.19;;;1.23;100.00
28935;BME280;16044;52.726;-2.108;2024-03-06T01:03:41;100879.44;;;1.21;100.00
28935;BME280;16044;52.726;-2.108;2024-03-06T01:06:11;100871.63;;;1.18;100.00
28935;BME280;16044;52.726;-2.108;2024-03-06T01:08:41;100884.00;;;1.19;100.00
28935;BME280;16044;52.726;-2.108;2024-03-06T01:11:14;100880.81;;;1.14;100.00
28935;BME280;16044;52.726;-2.108;2024-03-06T01:13:45;100878.34;;;1.11;100.00
28935;BME280;16044;52.726;-2.108;2024-03-06T01:16:15;100880.16;;;1.10;100.00
28935;BME280;16044;52.726;-2.108;2024-03-06T01:18:46;100883.78;;;1.09;100.00
28935;BME280;16044;52.726;-2.108;2024-03-06T01:21:16;100881.00;;;1.11;100.00
28935;BME280;16044;52.726;-2.108;2024-03-06T01:23:46;100874.84;;;1.10;100.00
28935;BME280;16044;52.726;-2.108;2024-03-06T01:26:19;100882.00;;;1.10;100.00
28935;BME280;16044;52.726;-2.108;2024-03-06T01:28:50;100878.59;;;1.08;100.00
28935;BME280;16044;52.726;-2.108;2024-03-06T01:31:20;100877.81;;;1.06;100.00
28935;BME280;16044;52.726;-2.108;2024-03-06T01:33:50;100879.72;;;1.04;100.00
28935;BME280;16044;52.726;-2.108;2024-03-06T01:36:21;100883.38;;;1.03;100.00
28935;BME280;16044;52.726;-2.108;2024-03-06T01:38:51;100876.41;;;1.00;100.00
28935;BME280;16044;52.726;-2.108;2024-03-06T01:41:24;100886.25;;;1.00;100.00
28935;BME280;16044;52.726;-2.108;2024-03-06T01:43:55;100891.03;;;0.94;100.00
28935;BME280;16044;52.726;-2.108;2024-03-06T01:46:25;100900.13;;;0.92;100.00
28935;BME280;16044;52.726;-2.108;2024-03-06T01:48:55;100895.84;;;0.89;100.00
28935;BME280;16044;52.726;-2.108;2024-03-06T01:51:30;100897.03;;;0.85;100.00
28935;BME280;16044;52.726;-2.108;2024-03-06T01:54:01;100898.91;;;0.83;100.00
28935;BME280;16044;52.726;-2.108;2024-03-06T01:56:35;100891.78;;;0.84;100.00
28935;BME280;16044;52.726;-2.108;2024-03-06T01:59:08;100901.81;;;0.80;100.00
28935;BME280;16044;52.726;-2.108;2024-03-06T02:01:54;100907.03;;;0.82;100.00
28935;BME280;16044;52.726;-2.108;2024-03-06T02:04:25;100907.25;;;0.78;100.00
28935;BME280;16044;52.726;-2.108;2024-03-06T02:06:56;100910.00;;;0.77;100.00
28935;BME280;16044;52.726;-2.108;2024-03-06T02:09:27;100900.31;;;0.76;100.00
28935;BME280;16044;52.726;-2.108;2024-03-06T02:12:00;100900.50;;;0.73;100.00
28935;BME280;16044;52.726;-2.108;2024-03-06T02:14:30;100903.28;;;0.71;100.00
28935;BME280;16044;52.726;-2.108;2024-03-06T02:17:01;100906.03;;;0.70;100.00
28935;BME280;16044;52.726;-2.108;2024-03-06T02:19:41;100900.91;;;0.67;100.00
28935;BME280;16044;52.726;-2.108;2024-03-06T02:22:15;100903.59;;;0.67;100.00
28935;BME280;16044;52.726;-2.108;2024-03-06T02:24:48;100899.28;;;0.64;100.00
28935;BME280;16044;52.726;-2.108;2024-03-06T02:27:19;100907.44;;;0.63;100.00
28935;BME280;16044;52.726;-2.108;2024-03-06T02:29:49;100903.78;;;0.64;100.00
28935;BME280;16044;52.726;-2.108;2024-03-06T02:32:20;100900.28;;;0.63;100.00
28935;BME280;16044;52.726;-2.108;2024-03-06T02:34:51;100894.28;;;0.60;100.00
28935;BME280;16044;52.726;-2.108;2024-03-06T02:37:24;100905.03;;;0.58;100.00
28935;BME280;16044;52.726;-2.108;2024-03-06T02:39:55;100902.47;;;0.56;100.00
28935;BME280;16044;52.726;-2.108;2024-03-06T02:42:27;100896.50;;;0.53;100.00
28935;BME280;16044;52.726;-2.108;2024-03-06T02:44:58;100903.88;;;0.49;100.00
28935;BME280;16044;52.726;-2.108;2024-03-06T02:47:29;100912.91;;;0.47;100.00
28935;BME280;16044;52.726;-2.108;2024-03-06T02:49:59;100903.31;;;0.44;100.00
28935;BME280;16044;52.726;-2.108;2024-03-06T02:52:32;100911.41;;;0.43;100.00
28935;BME280;16044;52.726;-2.108;2024-03-06T02:55:04;100895.50;;;0.41;100.00
28935;BME280;16044;52.726;-2.108;2024-03-06T02:57:35;100891.31;;;0.37;100.00
28935;BME280;16044;52.726;-2.108;2024-03-06T03:00:07;100893.25;;;0.35;100.00
28935;BME280;16044;52.726;-2.108;2024-03-06T03:02:40;100890.75;;;0.32;100.00
28935;BME280;16044;52.726;-2.108;2024-03-06T03:05:11;100890.91;;;0.30;100.00
28935;BME280;16044;52.726;-2.108;2024-03-06T03:07:43;100886.59;;;0.28;100.00
28935;BME280;16044;52.726;-2.108;2024-03-06T03:10:14;100893.84;;;0.26;100.00
28935;BME280;16044;52.726;-2.108;2024-03-06T03:12:45;100896.59;;;0.24;100.00
28935;BME280;16044;52.726;-2.108;2024-03-06T03:15:15;100888.69;;;0.23;100.00
28935;BME280;16044;52.726;-2.108;2024-03-06T03:17:45;100892.53;;;0.18;100.00
28935;BME280;16044;52.726;-2.108;2024-03-06T03:20:16;100889.94;;;0.17;100.00
28935;BME280;16044;52.726;-2.108;2024-03-06T03:22:50;100898.06;;;0.15;100.00
28935;BME280;16044;52.726;-2.108;2024-03-06T03:25:20;100890.09;;;0.15;100.00
28935;BME280;16044;52.726;-2.108;2024-03-06T03:27:51;100894.66;;;0.13;100.00
28935;BME280;16044;52.726;-2.108;2024-03-06T03:30:21;100887.59;;;0.12;100.00
28935;BME280;16044;52.726;-2.108;2024-03-06T03:32:52;100895.19;;;0.18;100.00
28935;BME280;16044;52.726;-2.108;2024-03-06T03:35:22;100894.25;;;0.19;100.00
28935;BME280;16044;52.726;-2.108;2024-03-06T03:37:55;100907.16;;;0.26;100.00
28935;BME280;16044;52.726;-2.108;2024-03-06T03:40:25;100908.78;;;0.28;100.00
28935;BME280;16044;52.726;-2.108;2024-03-06T03:42:56;100903.25;;;0.31;100.00
28935;BME280;16044;52.726;-2.108;2024-03-06T03:45:26;100911.16;;;0.33;100.00
28935;BME280;16044;52.726;-2.108;2024-03-06T03:47:56;100907.31;;;0.37;100.00
28935;BME280;16044;52.726;-2.108;2024-03-06T03:50:27;100914.38;;;0.38;100.00
28935;BME280;16044;52.726;-2.108;2024-03-06T03:53:00;100905.41;;;0.39;100.00
28935;BME280;16044;52.726;-2.108;2024-03-06T03:55:31;100905.31;;;0.41;100.00
28935;BME280;16044;52.726;-2.108;2024-03-06T03:58:01;100903.31;;;0.44;100.00
28935;BME280;16044;52.726;-2.108;2024-03-06T04:00:33;100906.91;;;0.43;100.00
28935;BME280;16044;52.726;-2.108;2024-03-06T04:03:05;100906.06;;;0.43;100.00
28935;BME280;16044;52.726;-2.108;2024-03-06T04:05:35;100902.47;;;0.44;100.00
28935;BME280;16044;52.726;-2.108;2024-03-06T04:08:08;100903.41;;;0.43;100.00
28935;BME280;16044;52.726;-2.108;2024-03-06T04:10:39;100905.00;;;0.45;100.00
28935;BME280;16044;52.726;-2.108;2024-03-06T04:13:09;100901.19;;;0.49;100.00
28935;BME280;16044;52.726;-2.108;2024-03-06T04:15:39;100911.66;;;0.52;100.00
28935;BME280;16044;52.726;-2.108;2024-03-06T04:18:10;100915.06;;;0.54;100.00
28935;BME280;16044;52.726;-2.108;2024-03-06T04:20:40;100912.50;;;0.53;100.00
28935;BME280;16044;52.726;-2.108;2024-03-06T04:23:14;100912.41;;;0.54;100.00
28935;BME280;16044;52.726;-2.108;2024-03-06T04:25:45;100913.91;;;0.58;100.00
28935;BME280;16044;52.726;-2.108;2024-03-06T04:28:15;100917.44;;;0.59;100.00
28935;BME280;16044;52.726;-2.108;2024-03-06T04:30:46;100914.47;;;0.64;100.00
28935;BME280;16044;52.726;-2.108;2024-03-06T04:33:16;100917.34;;;0.61;100.00
28935;BME280;16044;52.726;-2.108;2024-03-06T04:35:47;100915.53;;;0.61;100.00
28935;BME280;16044;52.726;-2.108;2024-03-06T04:38:20;100926.38;;;0.58;100.00
28935;BME280;16044;52.726;-2.108;2024-03-06T04:40:50;100922.69;;;0.61;100.00
28935;BME280;16044;52.726;-2.108;2024-03-06T04:43:20;100921.72;;;0.62;100.00
28935;BME280;16044;52.726;-2.108;2024-03-06T04:45:51;100930.69;;;0.61;100.00
28935;BME280;16044;52.726;-2.108;2024-03-06T04:48:21;100930.56;;;0.62;100.00
28935;BME280;16044;52.726;-2.108;2024-03-06T04:50:52;100929.72;;;0.62;100.00
28935;BME280;16044;52.726;-2.108;2024-03-06T04:53:25;100925.13;;;0.64;100.00
28935;BME280;16044;52.726;-2.108;2024-03-06T04:55:55;100928.63;;;0.64;100.00
28935;BME280;16044;52.726;-2.108;2024-03-06T04:58:26;100935.50;;;0.68;100.00
28935;BME280;16044;52.726;-2.108;2024-03-06T05:00:56;100927.09;;;0.74;100.00
28935;BME280;16044;52.726;-2.108;2024-03-06T05:03:27;100935.94;;;0.75;100.00
28935;BME280;16044;52.726;-2.108;2024-03-06T05:06:11;100939.91;;;0.82;100.00
28935;BME280;16044;52.726;-2.108;2024-03-06T05:08:57;100940.16;;;0.92;100.00
28935;BME280;16044;52.726;-2.108;2024-03-06T05:11:41;100938.22;;;0.94;100.00
28935;BME280;16044;52.726;-2.108;2024-03-06T05:14:25;100941.97;;;0.91;100.00
28935;BME280;16044;52.726;-2.108;2024-03-06T05:17:09;100942.72;;;0.93;100.00
28935;BME280;16044;52.726;-2.108;2024-03-06T05:19:54;100940.81;;;0.95;100.00
28935;BME280;16044;52.726;-2.108;2024-03-06T05:22:38;100941.13;;;1.04;100.00
28935;BME280;16044;52.726;-2.108;2024-03-06T05:25:24;100953.31;;;1.08;100.00
28935;BME280;16044;52.726;-2.108;2024-03-06T05:28:09;100957.88;;;1.06;100.00
28935;BME280;16044;52.726;-2.108;2024-03-06T05:30:53;100962.38;;;1.05;100.00
28935;BME280;16044;52.726;-2.108;2024-03-06T05:33:37;100971.38;;;1.04;100.00
28935;BME280;16044;52.726;-2.108;2024-03-06T05:36:21;100973.91;;;1.06;100.00
28935;BME280;16044;52.726;-2.108;2024-03-06T05:39:05;100976.94;;;1.14;100.00
28935;BME280;16044;52.726;-2.108;2024-03-06T05:42:00;100979.59;;;1.14;100.00
28935;BME280;16044;52.726;-2.108;2024-03-06T05:44:45;100971.59;;;1.14;100.00
28935;BME280;16044;52.726;-2.108;2024-03-06T05:47:31;100977.13;;;1.11;100.00
28935;BME280;16044;52.726;-2.108;2024-03-06T05:50:16;100972.03;;;1.08;100.00
28935;BME280;16044;52.726;-2.108;2024-03-06T05:53:00;100975.44;;;1.10;100.00
28935;BME280;16044;52.726;-2.108;2024-03-06T05:55:44;100982.47;;;1.11;100.00
28935;BME280;16044;52.726;-2.108;2024-03-06T05:58:30;100984.19;;;1.12;100.00
28935;BME280;16044;52.726;-2.108;2024-03-06T06:01:01;100988.66;;;1.11;100.00
28935;BME280;16044;52.726;-2.108;2024-03-06T06:03:32;100999.47;;;1.10;100.00
28935;BME280;16044;52.726;-2.108;2024-03-06T06:06:02;100995.06;;;1.09;100.00
28935;BME280;16044;52.726;-2.108;2024-03-06T06:08:33;100995.91;;;1.09;100.00
28935;BME280;16044;52.726;-2.108;2024-03-06T06:11:03;100999.03;;;1.16;100.00
28935;BME280;16044;52.726;-2.108;2024-03-06T06:13:38;100997.53;;;1.12;100.00
28935;BME280;16044;52.726;-2.108;2024-03-06T06:16:09;101008.31;;;1.10;100.00
28935;BME280;16044;52.726;-2.108;2024-03-06T06:18:40;101002.97;;;1.10;100.00
28935;BME280;16044;52.726;-2.108;2024-03-06T06:21:11;101002.13;;;1.10;100.00
28935;BME280;16044;52.726;-2.108;2024-03-06T06:23:43;101008.59;;;1.06;100.00
28935;BME280;16044;52.726;-2.108;2024-03-06T06:26:14;101011.41;;;1.04;100.00
28935;BME280;16044;52.726;-2.108;2024-03-06T06:28:47;101012.34;;;1.03;100.00
28935;BME280;16044;52.726;-2.108;2024-03-06T06:31:17;101013.19;;;1.04;100.00
28935;BME280;16044;52.726;-2.108;2024-03-06T06:33:48;101010.53;;;1.04;100.00
28935;BME280;16044;52.726;-2.108;2024-03-06T06:36:18;101011.28;;;1.06;100.00
28935;BME280;16044;52.726;-2.108;2024-03-06T06:38:49;101013.00;;;1.07;100.00
28935;BME280;16044;52.726;-2.108;2024-03-06T06:41:20;101009.41;;;1.08;100.00
28935;BME280;16044;52.726;-2.108;2024-03-06T06:43:53;101022.53;;;1.11;100.00
28935;BME280;16044;52.726;-2.108;2024-03-06T06:46:23;101020.69;;;1.11;100.00
28935;BME280;16044;52.726;-2.108;2024-03-06T06:48:54;101022.19;;;1.03;100.00
28935;BME280;16044;52.726;-2.108;2024-03-06T06:51:24;101033.94;;;1.13;100.00
28935;BME280;16044;52.726;-2.108;2024-03-06T06:53:54;101035.66;;;1.14;100.00
28935;BME280;16044;52.726;-2.108;2024-03-06T06:56:27;101029.25;;;1.16;100.00
28935;BME280;16044;52.726;-2.108;2024-03-06T06:59:00;101024.78;;;1.17;100.00
28935;BME280;16044;52.726;-2.108;2024-03-06T07:01:30;101024.78;;;1.17;100.00
28935;BME280;16044;52.726;-2.108;2024-03-06T07:04:01;101031.84;;;1.18;100.00
28935;BME280;16044;52.726;-2.108;2024-03-06T07:06:31;101029.91;;;1.20;100.00
28935;BME280;16044;52.726;-2.108;2024-03-06T07:09:02;101025.31;;;1.22;100.00
28935;BME280;16044;52.726;-2.108;2024-03-06T07:11:36;101030.56;;;1.24;100.00
28935;BME280;16044;52.726;-2.108;2024-03-06T07:14:09;101039.97;;;1.29;100.00
28935;BME280;16044;52.726;-2.108;2024-03-06T07:16:42;101038.16;;;1.30;100.00
28935;BME280;16044;52.726;-2.108;2024-03-06T07:19:13;101045.31;;;1.29;100.00
28935;BME280;16044;52.726;-2.108;2024-03-06T07:21:43;101037.97;;;1.33;100.00
28935;BME280;16044;52.726;-2.108;2024-03-06T07:24:15;101046.19;;;1.43;100.00
28935;BME280;16044;52.726;-2.108;2024-03-06T07:26:45;101052.19;;;1.46;100.00
28935;BME280;16044;52.726;-2.108;2024-03-06T07:29:18;101051.13;;;1.49;100.00
28935;BME280;16044;52.726;-2.108;2024-03-06T07:31:48;101040.25;;;1.52;100.00
28935;BME280;16044;52.726;-2.108;2024-03-06T07:34:19;101044.72;;;1.51;100.00
28935;BME280;16044;52.726;-2.108;2024-03-06T07:36:50;101047.63;;;1.61;100.00
28935;BME280;16044;52.726;-2.108;2024-03-06T07:39:20;101045.81;;;1.62;100.00
28935;BME280;16044;52.726;-2.108;2024-03-06T07:41:51;101052.75;;;1.64;100.00
28935;BME280;16044;52.726;-2.108;2024-03-06T07:44:24;101049.88;;;1.67;100.00
28935;BME280;16044;52.726;-2.108;2024-03-06T07:46:54;101053.28;;;1.69;100.00
28935;BME280;16044;52.726;-2.108;2024-03-06T07:49:25;101058.44;;;1.72;100.00
28935;BME280;16044;52.726;-2.108;2024-03-06T07:51:55;101049.88;;;1.80;100.00
28935;BME280;16044;52.726;-2.108;2024-03-06T07:54:26;101047.84;;;1.84;100.00
28935;BME280;16044;52.726;-2.108;2024-03-06T07:56:56;101044.41;;;1.94;100.00
28935;BME280;16044;52.726;-2.108;2024-03-06T07:59:29;101040.91;;;1.94;100.00
28935;BME280;16044;52.726;-2.108;2024-03-06T08:01:59;101039.41;;;2.03;100.00
28935;BME280;16044;52.726;-2.108;2024-03-06T08:04:30;101042.59;;;2.08;100.00
28935;BME280;16044;52.726;-2.108;2024-03-06T08:07:00;101044.50;;;2.19;100.00
28935;BME280;16044;52.726;-2.108;2024-03-06T08:09:30;101047.81;;;2.22;100.00
28935;BME280;16044;52.726;-2.108;2024-03-06T08:12:01;101043.84;;;2.28;100.00
28935;BME280;16044;52.726;-2.108;2024-03-06T08:14:34;101050.38;;;2.37;100.00
28935;BME280;16044;52.726;-2.108;2024-03-06T08:17:04;101052.41;;;2.46;100.00
28935;BME280;16044;52.726;-2.108;2024-03-06T08:19:34;101061.81;;;2.51;100.00
28935;BME280;16044;52.726;-2.108;2024-03-06T08:22:05;101056.84;;;2.58;100.00
28935;BME280;16044;52.726;-2.108;2024-03-06T08:24:35;101062.84;;;2.62;100.00
28935;BME280;16044;52.726;-2.108;2024-03-06T08:27:06;101061.66;;;2.66;100.00
28935;BME280;16044;52.726;-2.108;2024-03-06T08:29:38;101063.88;;;2.72;100.00
28935;BME280;16044;52.726;-2.108;2024-03-06T08:32:09;101063.44;;;2.78;100.00
28935;BME280;16044;52.726;-2.108;2024-03-06T08:34:40;101060.63;;;2.80;100.00
28935;BME280;16044;52.726;-2.108;2024-03-06T08:37:10;101055.81;;;2.85;100.00
28935;BME280;16044;52.726;-2.108;2024-03-06T08:39:41;101060.16;;;2.99;100.00
28935;BME280;16044;52.726;-2.108;2024-03-06T08:42:11;101066.75;;;3.06;100.00
28935;BME280;16044;52.726;-2.108;2024-03-06T08:44:48;101067.38;;;3.09;100.00
28935;BME280;16044;52.726;-2.108;2024-03-06T08:47:18;101065.31;;;3.13;100.00
28935;BME280;16044;52.726;-2.108;2024-03-06T08:49:49;101061.97;;;3.22;100.00
28935;BME280;16044;52.726;-2.108;2024-03-06T08:52:20;101062.97;;;3.32;100.00
28935;BME280;16044;52.726;-2.108;2024-03-06T08:54:50;101055.84;;;3.44;100.00
28935;BME280;16044;52.726;-2.108;2024-03-06T08:57:21;101068.41;;;3.55;100.00
28935;BME280;16044;52.726;-2.108;2024-03-06T08:59:56;101064.06;;;3.65;100.00
28935;BME280;16044;52.726;-2.108;2024-03-06T09:02:26;101061.41;;;3.77;100.00
28935;BME280;16044;52.726;-2.108;2024-03-06T09:04:57;101062.66;;;3.84;100.00
28935;BME280;16044;52.726;-2.108;2024-03-06T09:07:27;101068.50;;;4.00;100.00
28935;BME280;16044;52.726;-2.108;2024-03-06T09:09:58;101069.41;;;4.12;100.00
28935;BME280;16044;52.726;-2.108;2024-03-06T09:12:28;101069.88;;;4.28;100.00
28935;BME280;16044;52.726;-2.108;2024-03-06T09:15:02;101073.28;;;4.42;100.00
28935;BME280;16044;52.726;-2.108;2024-03-06T09:17:34;101078.41;;;4.56;100.00
28935;BME280;16044;52.726;-2.108;2024-03-06T09:20:06;101072.44;;;4.64;100.00
28935;BME280;16044;52.726;-2.108;2024-03-06T09:22:41;101079.97;;;4.70;100.00
28935;BME280;16044;52.726;-2.108;2024-03-06T09:25:12;101077.28;;;4.81;100.00
28935;BME280;16044;52.726;-2.108;2024-03-06T09:27:43;101082.03;;;4.89;100.00
28935;BME280;16044;52.726;-2.108;2024-03-06T09:30:16;101075.53;;;5.03;100.00
28935;BME280;16044;52.726;-2.108;2024-03-06T09:32:46;101083.28;;;5.17;100.00
28935;BME280;16044;52.726;-2.108;2024-03-06T09:35:17;101071.97;;;5.35;100.00
28935;BME280;16044;52.726;-2.108;2024-03-06T09:37:48;101079.75;;;5.49;100.00
28935;BME280;16044;52.726;-2.108;2024-03-06T09:40:22;101081.66;;;5.58;100.00
28935;BME280;16044;52.726;-2.108;2024-03-06T09:42:53;101079.19;;;5.66;100.00
28935;BME280;16044;52.726;-2.108;2024-03-06T09:45:26;101076.53;;;5.76;100.00
28935;BME280;16044;52.726;-2.108;2024-03-06T09:47:56;101082.88;;;5.86;100.00
28935;BME280;16044;52.726;-2.108;2024-03-06T09:50:28;101081.25;;;5.95;100.00
28935;BME280;16044;52.726;-2.108;2024-03-06T09:53:02;101087.25;;;6.09;100.00
28935;BME280;16044;52.726;-2.108;2024-03-06T09:55:34;101086.47;;;6.18;100.00
28935;BME280;16044;52.726;-2.108;2024-03-06T09:58:05;101099.41;;;6.24;100.00
28935;BME280;16044;52.726;-2.108;2024-03-06T10:00:38;101099.13;;;6.27;100.00
28935;BME280;16044;52.726;-2.108;2024-03-06T10:03:08;101101.56;;;6.30;100.00
28935;BME280;16044;52.726;-2.108;2024-03-06T10:05:39;101106.41;;;6.36;100.00
28935;BME280;16044;52.726;-2.108;2024-03-06T10:08:10;101102.44;;;6.40;100.00
28935;BME280;16044;52.726;-2.108;2024-03-06T10:10:44;101099.63;;;6.42;100.00
28935;BME280;16044;52.726;-2.108;2024-03-06T10:13:16;101108.16;;;6.47;100.00
28935;BME280;16044;52.726;-2.108;2024-03-06T10:15:58;101120.25;;;6.53;100.00
28935;BME280;16044;52.726;-2.108;2024-03-06T10:18:30;101118.97;;;6.57;100.00
28935;BME280;16044;52.726;-2.108;2024-03-06T10:21:02;101112.19;;;6.62;100.00
28935;BME280;16044;52.726;-2.108;2024-03-06T10:23:32;101121.56;;;6.68;100.00
28935;BME280;16044;52.726;-2.108;2024-03-06T10:26:07;101112.22;;;6.72;100.00
28935;BME280;16044;52.726;-2.108;2024-03-06T10:28:44;101121.91;;;6.75;100.00
28935;BME280;16044;52.726;-2.108;2024-03-06T10:31:26;101120.19;;;6.74;100.00
28935;BME280;16044;52.726;-2.108;2024-03-06T10:33:57;101119.91;;;6.77;100.00
28935;BME280;16044;52.726;-2.108;2024-03-06T10:36:31;101124.44;;;6.76;100.00
28935;BME280;16044;52.726;-2.108;2024-03-06T10:39:02;101124.88;;;6.81;100.00
28935;BME280;16044;52.726;-2.108;2024-03-06T10:41:33;101126.44;;;6.84;100.00
28935;BME280;16044;52.726;-2.108;2024-03-06T10:44:06;101129.00;;;6.86;100.00
28935;BME280;16044;52.726;-2.108;2024-03-06T10:46:45;101122.78;;;6.85;100.00
28935;BME280;16044;52.726;-2.108;2024-03-06T10:49:17;101127.03;;;6.88;100.00
28935;BME280;16044;52.726;-2.108;2024-03-06T10:51:49;101135.81;;;6.90;100.00
28935;BME280;16044;52.726;-2.108;2024-03-06T10:54:21;101129.31;;;6.92;100.00
28935;BME280;16044;52.726;-2.108;2024-03-06T10:56:53;101134.72;;;6.92;100.00
28935;BME280;16044;52.726;-2.108;2024-03-06T10:59:28;101134.13;;;6.89;100.00
28935;BME280;16044;52.726;-2.108;2024-03-06T11:02:01;101126.75;;;6.91;100.00
28935;BME280;16044;52.726;-2.108;2024-03-06T11:04:32;101126.75;;;6.91;100.00
28935;BME280;16044;52.726;-2.108;2024-03-06T11:07:03;101129.19;;;6.94;100.00
28935;BME280;16044;52.726;-2.108;2024-03-06T11:09:38;101133.13;;;6.90;100.00
28935;BME280;16044;52.726;-2.108;2024-03-06T11:12:09;101130.75;;;6.96;100.00
28935;BME280;16044;52.726;-2.108;2024-03-06T11:14:39;101123.63;;;6.95;100.00
28935;BME280;16044;52.726;-2.108;2024-03-06T11:17:12;101125.94;;;7.00;100.00
28935;BME280;16044;52.726;-2.108;2024-03-06T11:20:17;101123.97;;;7.02;100.00
28935;BME280;16044;52.726;-2.108;2024-03-06T11:23:09;101121.41;;;7.10;100.00
28935;BME280;16044;52.726;-2.108;2024-03-06T11:25:55;101116.91;;;7.11;100.00
28935;BME280;16044;52.726;-2.108;2024-03-06T11:28:34;101129.38;;;7.21;100.00
28935;BME280;16044;52.726;-2.108;2024-03-06T11:31:08;101132.38;;;7.28;100.00
28935;BME280;16044;52.726;-2.108;2024-03-06T11:33:45;101134.53;;;7.34;100.00
28935;BME280;16044;52.726;-2.108;2024-03-06T11:36:19;101135.22;;;7.46;100.00
28935;BME280;16044;52.726;-2.108;2024-03-06T11:38:55;101132.25;;;7.49;100.00
28935;BME280;16044;52.726;-2.108;2024-03-06T11:41:27;101135.53;;;7.53;100.00
28935;BME280;16044;52.726;-2.108;2024-03-06T11:44:00;101138.50;;;7.59;100.00
28935;BME280;16044;52.726;-2.108;2024-03-06T11:46:41;101137.38;;;7.62;100.00
28935;BME280;16044;52.726;-2.108;2024-03-06T11:49:19;101136.53;;;7.71;100.00
28935;BME280;16044;52.726;-2.108;2024-03-06T11:51:52;101139.94;;;7.73;100.00
28935;BME280;16044;52.726;-2.108;2024-03-06T11:54:23;101129.72;;;7.77;100.00
28935;BME280;16044;52.726;-2.108;2024-03-06T11:56:55;101134.69;;;7.81;100.00
28935;BME280;16044;52.726;-2.108;2024-03-06T11:59:27;101134.53;;;7.83;100.00
28935;BME280;16044;52.726;-2.108;2024-03-06T12:02:00;101137.09;;;7.85;100.00
28935;BME280;16044;52.726;-2.108;2024-03-06T12:04:35;101124.31;;;7.96;100.00
28935;BME280;16044;52.726;-2.108;2024-03-06T12:07:06;101131.09;;;8.00;100.00
28935;BME280;16044;52.726;-2.108;2024-03-06T12:09:38;101143.19;;;8.06;100.00
28935;BME280;16044;52.726;-2.108;2024-03-06T12:12:10;101135.22;;;8.05;100.00
28935;BME280;16044;52.726;-2.108;2024-03-06T12:14:40;101141.19;;;7.98;100.00
28935;BME280;16044;52.726;-2.108;2024-03-06T12:17:12;101133.09;;;7.98;100.00
28935;BME280;16044;52.726;-2.108;2024-03-06T12:19:48;101138.50;;;7.98;100.00
28935;BME280;16044;52.726;-2.108;2024-03-06T12:22:25;101138.06;;;8.03;100.00
28935;BME280;16044;52.726;-2.108;2024-03-06T12:24:59;101142.19;;;8.07;100.00
28935;BME280;16044;52.726;-2.108;2024-03-06T12:27:31;101148.88;;;8.13;100.00
28935;BME280;16044;52.726;-2.108;2024-03-06T12:30:09;101150.56;;;8.14;100.00
28935;BME280;16044;52.726;-2.108;2024-03-06T12:32:40;101150.69;;;8.12;100.00
28935;BME280;16044;52.726;-2.108;2024-03-06T12:35:23;101150.44;;;8.06;100.00
28935;BME280;16044;52.726;-2.108;2024-03-06T12:37:55;101148.44;;;8.08;100.00
28935;BME280;16044;52.726;-2.108;2024-03-06T12:40:25;101153.56;;;8.01;100.00
28935;BME280;16044;52.726;-2.108;2024-03-06T12:42:56;101154.13;;;8.05;100.00
28935;BME280;16044;52.726;-2.108;2024-03-06T12:45:26;101147.16;;;8.02;100.00
28935;BME280;16044;52.726;-2.108;2024-03-06T12:47:56;101149.16;;;8.00;100.00
28935;BME280;16044;52.726;-2.108;2024-03-06T12:50:30;101152.97;;;7.97;100.00
28935;BME280;16044;52.726;-2.108;2024-03-06T12:53:00;101142.91;;;7.90;100.00
28935;BME280;16044;52.726;-2.108;2024-03-06T12:55:31;101149.56;;;7.95;100.00
28935;BME280;16044;52.726;-2.108;2024-03-06T12:58:03;101140.50;;;7.96;100.00
28935;BME280;16044;52.726;-2.108;2024-03-06T13:00:34;101143.91;;;7.98;100.00
28935;BME280;16044;52.726;-2.108;2024-03-06T13:03:05;101142.47;;;8.04;100.00
28935;BME280;16044;52.726;-2.108;2024-03-06T13:05:38;101144.44;;;8.12;100.00
28935;BME280;16044;52.726;-2.108;2024-03-06T13:08:08;101149.25;;;8.18;100.00